Time;durP1;ratioP1;P1;durP2;ratioP2;P2;SDS_P1;SDS_P2;PMS_P1;PMS_P2;Temp;Humidity;BMP_temperature;BMP_pressure;BME280_temperature;BME280_humidity;BME280_pressure;Samples;Min_cycle;Max_cycle;Signal;HPM_P1;HPM_P2
2023/06/20 00:00:55;;;;;;;;;;;;;;;15.56;47.31;100670.97;5052405;28;1129;-54
2023/06/20 00:03:21;;;;;;;;;;;;;;;15.53;47.33;100671.50;5050102;28;1906;-53
2023/06/20 00:05:46;;;;;;;;;;;;;;;15.55;47.27;100673.97;5057861;28;1060;-54
2023/06/20 00:08:12;;;;;;;;;;;;;;;15.47;47.29;100671.75;5058219;28;992;-54
2023/06/20 00:10:37;;;;;;;;;;;;;;;15.51;47.11;100670.13;5057718;28;1071;-54
2023/06/20 00:13:03;;;;;;;;;;;;;;;15.50;47.02;100676.69;5045516;28;894;-54
2023/06/20 00:15:28;;;;;;;;;;;;;;;15.52;47.23;100669.03;5042575;28;1230;-53
2023/06/20 00:17:54;;;;;;;;;;;;;;;15.54;46.80;100666.84;5057648;28;1111;-54
2023/06/20 00:20:20;;;;;;;;;;;;;;;16.20;48.05;100662.59;5056880;28;1103;-54
2023/06/20 00:22:45;;;;;;;;;;;;;;;16.08;49.41;100662.88;5028941;28;1040;-52
2023/06/20 00:25:11;;;;;;;;;;;;;;;15.84;48.97;100660.66;5054788;28;1910;-54
2023/06/20 00:27:36;;;;;;;;;;;;;;;15.73;48.65;100669.91;5057754;28;1072;-55
2023/06/20 00:30:02;;;;;;;;;;;;;;;15.67;48.05;100662.75;5057316;28;1036;-55
2023/06/20 00:32:28;;;;;;;;;;;;;;;15.68;47.78;100664.41;5039491;28;1382;-54
2023/06/20 00:34:58;;;;;;;;;;;;;;;15.63;47.46;100658.94;5057294;28;1072;-54
2023/06/20 00:37:24;;;;;;;;;;;;;;;15.68;47.29;100657.03;5045506;28;900;-52
2023/06/20 00:39:50;;;;;;;;;;;;;;;15.62;47.51;100652.59;5056312;28;1139;-54
2023/06/20 00:42:18;;;;;;;;;;;;;;;15.59;47.14;100658.63;5056630;28;1151;-53
2023/06/20 00:44:44;;;;;;;;;;;;;;;15.60;47.04;100659.44;5039281;28;1898;-55
2023/06/20 00:47:10;;;;;;;;;;;;;;;15.53;47.20;100665.22;5057229;28;1071;-55
2023/06/20 00:49:38;;;;;;;;;;;;;;;15.57;47.05;100669.03;5037425;28;1209;-55
2023/06/20 00:52:03;;;;;;;;;;;;;;;15.53;47.11;100678.91;5031783;28;1108;-54
2023/06/20 00:54:29;;;;;;;;;;;;;;;15.80;47.74;100680.66;5039429;28;1151;-56
2023/06/20 00:56:55;;;;;;;;;;;;;;;16.05;49.22;100679.88;5056947;28;1040;-55
2023/06/20 00:59:20;;;;;;;;;;;;;;;15.81;49.06;100687.78;5057096;28;1144;-54
2023/06/20 01:01:46;;;;;;;;;;;;;;;15.75;48.36;100689.66;5026621;28;1585;-52
2023/06/20 01:04:12;;;;;;;;;;;;;;;15.66;48.09;100686.63;5055419;28;1907;-55
2023/06/20 01:06:45;;;;;;;;;;;;;;;15.58;48.01;100676.16;5057104;28;1116;-54
2023/06/20 01:09:24;;;;;;;;;;;;;;;15.62;47.72;100688.25;5042540;28;1296;-53
2023/06/20 01:11:49;;;;;;;;;;;;;;;15.59;47.69;100675.09;5054562;28;1087;-54
2023/06/20 01:14:21;;;;;;;;;;;;;;;15.55;47.27;100673.97;5045421;28;1088;-52
2023/06/20 01:16:51;;;;;;;;;;;;;;;15.51;47.55;100675.59;5039173;28;1056;-55
2023/06/20 01:19:16;;;;;;;;;;;;;;;15.56;47.08;100681.09;5029544;28;1262;-53
2023/06/20 01:21:42;;;;;;;;;;;;;;;15.53;47.33;100678.91;5052705;28;1016;-54
2023/06/20 01:24:08;;;;;;;;;;;;;;;15.54;46.93;100684.13;5038254;28;1959;-54
2023/06/20 01:27:08;;;;;;;;;;;;;;;15.51;47.34;100681.09;5040607;28;1203;-53
2023/06/20 01:29:42;;;;;;;;;;;;;;;15.53;47.07;100679.72;4959222;28;1196;-54
2023/06/20 01:32:09;;;;;;;;;;;;;;;15.49;46.93;100677.81;4993525;28;1563;-53
2023/06/20 01:34:35;;;;;;;;;;;;;;;15.45;47.14;100684.91;5037751;28;1146;-54
2023/06/20 01:37:01;;;;;;;;;;;;;;;15.38;47.11;100683.22;5038351;28;1233;-55
2023/06/20 01:39:27;;;;;;;;;;;;;;;15.37;47.06;100681.56;5056433;28;1154;-54
2023/06/20 01:41:53;;;;;;;;;;;;;;;15.40;46.90;100672.84;5029824;28;1160;-54
2023/06/20 01:44:19;;;;;;;;;;;;;;;15.44;47.02;100672.28;5020574;28;1985;-54
2023/06/20 01:46:44;;;;;;;;;;;;;;;15.36;47.18;100685.41;5038947;28;1126;-53
2023/06/20 01:49:10;;;;;;;;;;;;;;;16.10;48.69;100676.31;5035865;28;1309;-54
2023/06/20 01:51:35;;;;;;;;;;;;;;;15.73;48.89;100692.66;5027239;28;1496;-53
2023/06/20 01:54:01;;;;;;;;;;;;;;;15.66;48.58;100694.03;5053786;28;1142;-51
2023/06/20 01:56:27;;;;;;;;;;;;;;;15.58;48.15;100695.34;5044707;28;1072;-54
2023/06/20 01:58:53;;;;;;;;;;;;;;;15.57;47.91;100688.22;5038058;28;1156;-53
2023/06/20 02:01:18;;;;;;;;;;;;;;;15.66;47.49;100696.75;5047284;28;889;-54
2023/06/20 02:03:44;;;;;;;;;;;;;;;15.53;47.64;100693.44;5037524;28;1910;-52
2023/06/20 02:06:10;;;;;;;;;;;;;;;15.53;47.21;100712.63;5038439;28;1080;-55
2023/06/20 02:08:37;;;;;;;;;;;;;;;15.50;47.16;100704.09;5056126;28;1068;-55
2023/06/20 02:11:02;;;;;;;;;;;;;;;15.47;47.02;100707.38;5038375;28;1092;-55
2023/06/20 02:13:29;;;;;;;;;;;;;;;15.51;46.97;100716.72;5020029;28;1343;-55
2023/06/20 02:15:54;;;;;;;;;;;;;;;15.52;46.67;100704.66;5026653;28;1120;-55
2023/06/20 02:18:20;;;;;;;;;;;;;;;15.42;46.87;100723.78;5036784;28;1095;-55
2023/06/20 02:20:52;;;;;;;;;;;;;;;16.28;48.33;100710.63;5036279;28;1144;-52
2023/06/20 02:23:25;;;;;;;;;;;;;;;15.89;49.18;100720.16;5034050;28;1975;-54
2023/06/20 02:25:51;;;;;;;;;;;;;;;15.66;48.93;100726.91;5037218;28;1027;-55
2023/06/20 02:28:16;;;;;;;;;;;;;;;15.67;48.13;100723.06;5038234;28;1100;-54
2023/06/20 02:30:45;;;;;;;;;;;;;;;15.64;47.70;100726.34;5022040;28;1342;-53
2023/06/20 02:33:11;;;;;;;;;;;;;;;15.53;47.90;100720.84;5055811;28;1108;-53
2023/06/20 02:35:37;;;;;;;;;;;;;;;15.55;47.21;100724.13;5037865;28;1189;-54
2023/06/20 02:38:02;;;;;;;;;;;;;;;15.55;47.03;100734.28;5033583;28;1107;-54
2023/06/20 02:40:28;;;;;;;;;;;;;;;15.50;47.03;100732.34;5028453;28;1021;-54
2023/06/20 02:42:53;;;;;;;;;;;;;;;15.86;47.86;100731.66;5042543;28;1156;-54
2023/06/20 02:45:19;;;;;;;;;;;;;;;16.21;49.27;100741.88;5038523;28;1914;-54
2023/06/20 02:48:04;;;;;;;;;;;;;;;15.77;49.59;100738.72;5059368;28;1183;-56
2023/06/20 02:50:34;;;;;;;;;;;;;;;15.76;48.57;100734.34;5028024;28;1310;-56
2023/06/20 02:53:18;;;;;;;;;;;;;;;15.69;48.24;100735.41;5005458;28;1223;-57
2023/06/20 02:55:56;;;;;;;;;;;;;;;15.67;47.69;100743.09;5039249;28;1230;-57
2023/06/20 02:58:22;;;;;;;;;;;;;;;15.64;47.71;100742.78;5033383;28;1246;-57
2023/06/20 03:00:49;;;;;;;;;;;;;;;15.59;47.50;100746.34;5041534;28;1060;-58
2023/06/20 03:03:16;;;;;;;;;;;;;;;15.51;47.33;100744.13;5041205;28;1913;-57
2023/06/20 03:05:42;;;;;;;;;;;;;;;15.54;47.44;100752.63;5058964;28;1184;-52
2023/06/20 03:08:08;;;;;;;;;;;;;;;15.56;47.04;100753.19;5041245;28;1056;-56
2023/06/20 03:10:33;;;;;;;;;;;;;;;15.50;47.20;100761.63;5058791;28;1087;-52
2023/06/20 03:13:01;;;;;;;;;;;;;;;15.40;47.04;100749.56;5041111;28;1128;-55
2023/06/20 03:15:27;;;;;;;;;;;;;;;15.40;47.10;100754.19;5024690;28;1159;-55
2023/06/20 03:17:55;;;;;;;;;;;;;;;15.44;46.87;100765.47;5041012;28;1391;-59
2023/06/20 03:20:21;;;;;;;;;;;;;;;15.42;47.05;100754.75;5059160;28;1103;-60
2023/06/20 03:22:46;;;;;;;;;;;;;;;15.39;46.84;100756.13;5041358;28;1152;-60
2023/06/20 03:25:13;;;;;;;;;;;;;;;15.37;46.77;100763.75;5040363;28;1892;-59
2023/06/20 03:27:39;;;;;;;;;;;;;;;15.36;47.13;100764.88;5040334;28;1244;-59
2023/06/20 03:30:07;;;;;;;;;;;;;;;15.33;46.86;100764.56;5040924;28;1147;-59
2023/06/20 03:32:37;;;;;;;;;;;;;;;15.62;47.68;100758.69;5029844;28;1174;-59
2023/06/20 03:35:04;;;;;;;;;;;;;;;15.94;48.83;100758.56;5038850;28;1104;-59
2023/06/20 03:37:30;;;;;;;;;;;;;;;15.73;48.78;100758.47;5040070;28;1273;-60
2023/06/20 03:39:55;;;;;;;;;;;;;;;15.66;48.33;100757.88;5037982;28;1301;-60
2023/06/20 03:42:21;;;;;;;;;;;;;;;15.55;48.08;100754.25;5037692;28;1199;-55
2023/06/20 03:44:47;;;;;;;;;;;;;;;15.50;47.83;100764.38;5040493;28;1997;-57
2023/06/20 03:47:13;;;;;;;;;;;;;;;15.46;47.69;100749.56;5039909;28;1133;-57
2023/06/20 03:49:38;;;;;;;;;;;;;;;15.50;47.52;100747.94;5046051;28;1104;-57
2023/06/20 03:52:04;;;;;;;;;;;;;;;15.47;47.42;100743.00;5040443;28;1263;-56
2023/06/20 03:54:30;;;;;;;;;;;;;;;15.49;47.05;100752.59;5032029;28;1233;-57
2023/06/20 03:56:57;;;;;;;;;;;;;;;15.59;47.41;100760.06;5020063;28;1351;-48
2023/06/20 03:59:23;;;;;;;;;;;;;;;15.56;47.66;100752.38;5020745;28;1338;-57
2023/06/20 04:01:50;;;;;;;;;;;;;;;15.48;47.71;100763.84;5033725;28;1214;-57
2023/06/20 04:04:16;;;;;;;;;;;;;;;15.42;47.57;100762.13;5047143;28;1906;-57
2023/06/20 04:06:41;;;;;;;;;;;;;;;16.24;49.08;100762.47;5057786;28;1068;-56
2023/06/20 04:09:07;;;;;;;;;;;;;;;15.89;49.01;100756.66;5040004;28;1171;-56
2023/06/20 04:11:32;;;;;;;;;;;;;;;15.74;48.72;100762.84;5057817;28;1211;-54
2023/06/20 04:13:58;;;;;;;;;;;;;;;15.65;48.35;100761.72;5049278;28;901;-57
2023/06/20 04:16:23;;;;;;;;;;;;;;;15.63;48.05;100755.69;5050110;28;1044;-56
2023/06/20 04:18:49;;;;;;;;;;;;;;;15.63;47.71;100763.91;5038922;28;1168;-54
2023/06/20 04:21:16;;;;;;;;;;;;;;;15.58;47.65;100766.63;5057383;28;1118;-57
2023/06/20 04:23:41;;;;;;;;;;;;;;;15.57;47.38;100764.97;5057480;28;1977;-54
2023/06/20 04:26:08;;;;;;;;;;;;;;;15.59;47.25;100768.28;5038822;28;1119;-57
2023/06/20 04:28:33;;;;;;;;;;;;;;;15.45;47.42;100778.88;5043445;28;1153;-56
2023/06/20 04:31:00;;;;;;;;;;;;;;;15.59;47.12;100779.22;5038403;28;1502;-57
2023/06/20 04:33:26;;;;;;;;;;;;;;;15.53;47.44;100777.56;5056639;28;1294;-58
2023/06/20 04:35:57;;;;;;;;;;;;;;;15.43;47.43;100774.75;5038668;28;1424;-56
2023/06/20 04:38:26;;;;;;;;;;;;;;;15.47;47.39;100782.19;5035928;28;1909;-57
2023/06/20 04:40:51;;;;;;;;;;;;;;;15.47;47.50;100781.34;5046684;28;1662;-57
2023/06/20 04:43:17;;;;;;;;;;;;;;;15.48;47.21;100785.75;5025693;28;1960;-57
2023/06/20 04:45:43;;;;;;;;;;;;;;;16.42;48.47;100794.91;5056824;28;1116;-57
2023/06/20 04:48:09;;;;;;;;;;;;;;;16.03;48.96;100786.28;5043022;28;1204;-56
2023/06/20 04:50:36;;;;;;;;;;;;;;;15.74;49.03;100781.22;5038207;28;1404;-55
2023/06/20 04:53:03;;;;;;;;;;;;;;;15.72;48.40;100783.41;5037668;28;1743;-56
2023/06/20 04:55:29;;;;;;;;;;;;;;;17.05;46.73;100779.28;5038481;28;1226;-55
2023/06/20 04:57:56;;;;;;;;;;;;;;;17.05;46.90;100785.59;5056631;28;1222;-56
2023/06/20 05:00:22;;;;;;;;;;;;;;;16.77;47.67;100782.31;5056328;28;1052;-57
2023/06/20 05:02:47;;;;;;;;;;;;;;;16.62;48.44;100790.53;5028234;28;1415;-57
2023/06/20 05:05:13;;;;;;;;;;;;;;;16.54;48.72;100785.59;5033777;28;2009;-58
2023/06/20 05:07:40;;;;;;;;;;;;;;;16.49;49.13;100793.81;5038238;28;1295;-55
2023/06/20 05:10:05;;;;;;;;;;;;;;;16.36;49.50;100787.75;5038431;28;1288;-54
2023/06/20 05:12:32;;;;;;;;;;;;;;;16.38;49.78;100790.22;5056767;28;993;-57
2023/06/20 05:14:58;;;;;;;;;;;;;;;16.37;49.79;100789.41;5042860;28;1075;-59
2023/06/20 05:17:23;;;;;;;;;;;;;;;16.34;49.81;100789.94;5056566;28;1218;-56
2023/06/20 05:19:49;;;;;;;;;;;;;;;17.41;47.93;100785.53;5055749;28;1067;-53
2023/06/20 05:22:14;;;;;;;;;;;;;;;17.20;48.28;100783.94;5055905;28;1083;-53
2023/06/20 05:24:40;;;;;;;;;;;;;;;16.82;49.43;100784.22;5056299;28;1975;-54
2023/06/20 05:27:05;;;;;;;;;;;;;;;16.64;50.34;100782.84;5049017;28;987;-53
2023/06/20 05:29:31;;;;;;;;;;;;;;;16.60;50.23;100787.22;5049296;28;1060;-57
2023/06/20 05:31:56;;;;;;;;;;;;;;;16.52;50.74;100790.50;5056032;28;1421;-58
2023/06/20 05:34:22;;;;;;;;;;;;;;;16.46;50.98;100791.59;5056641;28;1111;-56
2023/06/20 05:36:47;;;;;;;;;;;;;;;16.47;50.86;100793.25;5055496;28;1071;-55
2023/06/20 05:39:13;;;;;;;;;;;;;;;16.41;51.37;100789.66;5042450;28;904;-55
2023/06/20 05:41:39;;;;;;;;;;;;;;;16.97;50.49;100794.41;5055286;28;1071;-54
2023/06/20 05:44:04;;;;;;;;;;;;;;;17.73;48.37;100797.28;5056231;28;1910;-57
2023/06/20 05:46:30;;;;;;;;;;;;;;;17.09;50.13;100797.66;5038597;28;1211;-53
2023/06/20 05:48:59;;;;;;;;;;;;;;;16.91;50.78;100798.25;5055714;28;1154;-54
2023/06/20 05:51:25;;;;;;;;;;;;;;;16.80;51.22;100799.31;5048294;28;849;-57
2023/06/20 05:53:51;;;;;;;;;;;;;;;16.68;51.48;100803.16;5049976;28;1052;-56
2023/06/20 05:56:16;;;;;;;;;;;;;;;16.58;51.90;100803.16;5056601;28;1115;-57
2023/06/20 05:58:42;;;;;;;;;;;;;;;16.57;51.99;100807.00;5056303;28;1099;-51
2023/06/20 06:01:08;;;;;;;;;;;;;;;16.53;51.96;100814.94;5056154;28;1183;-53
2023/06/20 06:03:34;;;;;;;;;;;;;;;16.69;51.91;100813.06;5042979;28;1914;-55
2023/06/20 06:05:59;;;;;;;;;;;;;;;17.57;50.17;100804.72;5055774;28;993;-54
2023/06/20 06:08:25;;;;;;;;;;;;;;;17.02;51.59;100799.88;5055781;28;1079;-53
2023/06/20 06:10:52;;;;;;;;;;;;;;;16.93;51.81;100805.13;5056427;28;1059;-57
2023/06/20 06:13:17;;;;;;;;;;;;;;;16.83;52.16;100798.75;5056015;28;1009;-57
2023/06/20 06:15:43;;;;;;;;;;;;;;;16.69;52.47;100802.06;5049212;28;965;-56
2023/06/20 06:18:08;;;;;;;;;;;;;;;16.63;52.64;100797.66;5049129;28;1139;-59
2023/06/20 06:20:34;;;;;;;;;;;;;;;16.58;52.82;100794.91;5058982;28;1100;-56
2023/06/20 06:22:59;;;;;;;;;;;;;;;16.56;53.01;100791.59;5060423;28;1032;-56
2023/06/20 06:25:25;;;;;;;;;;;;;;;16.51;53.23;100797.09;5059876;28;1906;-56
2023/06/20 06:27:51;;;;;;;;;;;;;;;16.49;53.13;100799.28;5046630;28;866;-55
2023/06/20 06:30:16;;;;;;;;;;;;;;;16.48;53.20;100800.38;5059878;28;1140;-55
2023/06/20 06:32:47;;;;;;;;;;;;;;;17.07;52.38;100799.88;5059432;28;1231;-57
2023/06/20 06:35:13;;;;;;;;;;;;;;;17.57;51.30;100793.72;5060301;28;1120;-59
2023/06/20 06:37:40;;;;;;;;;;;;;;;17.07;52.88;100799.88;5059551;28;1122;-55
2023/06/20 06:40:06;;;;;;;;;;;;;;;16.88;53.39;100798.78;5052273;28;1187;-57
2023/06/20 06:42:32;;;;;;;;;;;;;;;16.85;53.25;100796.56;5035536;28;1215;-53
2023/06/20 06:45:00;;;;;;;;;;;;;;;16.77;53.65;100798.78;5041829;28;1914;-54
2023/06/20 06:47:26;;;;;;;;;;;;;;;16.72;53.58;100790.53;5060046;28;1111;-54
2023/06/20 06:49:51;;;;;;;;;;;;;;;16.68;53.80;100797.66;5059337;28;1067;-55
2023/06/20 06:52:17;;;;;;;;;;;;;;;16.65;53.85;100795.47;5045806;28;909;-56
2023/06/20 06:54:43;;;;;;;;;;;;;;;16.55;54.19;100789.97;5059452;28;1064;-56
2023/06/20 06:57:09;;;;;;;;;;;;;;;16.48;54.11;100786.66;5059183;28;1055;-51
2023/06/20 06:59:34;;;;;;;;;;;;;;;16.53;53.90;100786.69;5059478;28;1191;-51
2023/06/20 07:02:01;;;;;;;;;;;;;;;16.45;54.34;100784.47;5059599;28;1247;-57
2023/06/20 07:04:26;;;;;;;;;;;;;;;16.44;54.25;100791.88;5033919;28;1906;-54
2023/06/20 07:06:52;;;;;;;;;;;;;;;17.37;53.48;100795.44;5039710;28;1237;-53
2023/06/20 07:09:17;;;;;;;;;;;;;;;17.48;53.44;100789.94;5059049;28;1222;-57
2023/06/20 07:11:43;;;;;;;;;;;;;;;17.06;54.23;100778.19;5058927;28;1126;-57
2023/06/20 07:14:08;;;;;;;;;;;;;;;16.91;54.69;100781.75;5058235;28;1056;-57
2023/06/20 07:16:34;;;;;;;;;;;;;;;16.85;54.29;100780.91;5047819;28;863;-57
2023/06/20 07:18:59;;;;;;;;;;;;;;;16.80;54.82;100782.84;5052626;28;1032;-55
2023/06/20 07:21:25;;;;;;;;;;;;;;;16.74;54.65;100790.25;5059102;28;1036;-57
2023/06/20 07:23:51;;;;;;;;;;;;;;;16.80;55.19;100786.41;5058599;28;1917;-53
2023/06/20 07:26:16;;;;;;;;;;;;;;;16.76;55.18;100791.63;5058557;28;1031;-54
2023/06/20 07:28:42;;;;;;;;;;;;;;;16.72;54.87;100779.53;5045014;28;973;-54
2023/06/20 07:31:07;;;;;;;;;;;;;;;16.71;55.08;100783.38;5058002;28;1039;-52
2023/06/20 07:33:33;;;;;;;;;;;;;;;16.81;55.78;100776.25;5058302;28;1146;-54
2023/06/20 07:36:00;;;;;;;;;;;;;;;16.86;55.95;100781.75;5058157;28;1048;-55
2023/06/20 07:38:25;;;;;;;;;;;;;;;16.75;55.91;100779.00;5057455;28;1340;-55
2023/06/20 07:40:51;;;;;;;;;;;;;;;16.69;55.89;100788.34;5057795;28;1215;-52
2023/06/20 07:43:19;;;;;;;;;;;;;;;16.68;55.48;100794.09;5057434;28;1210;-57
2023/06/20 07:45:45;;;;;;;;;;;;;;;16.64;55.42;100790.25;5057096;28;1245;-52
2023/06/20 07:48:10;;;;;;;;;;;;;;;16.61;55.42;100788.88;5057709;28;1238;-55
2023/06/20 07:50:35;;;;;;;;;;;;;;;16.57;55.39;100788.59;5057778;28;1266;-54
2023/06/20 07:53:02;;;;;;;;;;;;;;;16.54;55.32;100791.88;5057800;28;1282;-54
2023/06/20 07:55:28;;;;;;;;;;;;;;;16.57;55.35;100796.00;5056693;28;1206;-54
2023/06/20 07:57:55;;;;;;;;;;;;;;;16.58;55.30;100794.91;5057152;28;1214;-55
2023/06/20 08:00:22;;;;;;;;;;;;;;;16.57;55.13;100801.50;5057455;28;1329;-54
2023/06/20 08:02:48;;;;;;;;;;;;;;;17.02;56.12;100794.38;5057855;28;1246;-56
2023/06/20 08:05:13;;;;;;;;;;;;;;;17.60;56.09;100809.69;5046298;28;2009;-56
2023/06/20 08:07:39;;;;;;;;;;;;;;;17.14;56.55;100801.50;5042961;28;1127;-54
2023/06/20 08:10:07;;;;;;;;;;;;;;;16.92;56.62;100797.16;5057552;28;1156;-57
2023/06/20 08:12:33;;;;;;;;;;;;;;;16.93;56.10;100802.38;5057839;28;1016;-57
2023/06/20 08:14:58;;;;;;;;;;;;;;;16.77;56.14;100796.03;5056985;28;1302;-58
2023/06/20 08:17:24;;;;;;;;;;;;;;;16.71;55.88;100802.59;5037803;28;1168;-56
2023/06/20 08:19:49;;;;;;;;;;;;;;;16.75;55.60;100792.72;5037807;28;1202;-52
2023/06/20 08:22:15;;;;;;;;;;;;;;;16.69;55.60;100784.75;5051224;28;1040;-51
2023/06/20 08:24:40;;;;;;;;;;;;;;;16.67;55.48;100790.53;5037394;28;1905;-50
2023/06/20 08:27:06;;;;;;;;;;;;;;;16.65;55.08;100792.72;5056803;28;949;-54
2023/06/20 08:29:31;;;;;;;;;;;;;;;16.63;55.14;100792.16;5043960;28;1214;-52
2023/06/20 08:31:57;;;;;;;;;;;;;;;16.59;55.21;100788.31;5044289;28;1424;-53
2023/06/20 08:34:22;;;;;;;;;;;;;;;16.55;55.29;100798.19;5057957;28;1155;-52
2023/06/20 08:36:48;;;;;;;;;;;;;;;16.56;54.93;100795.19;5056956;28;968;-54
2023/06/20 08:39:13;;;;;;;;;;;;;;;16.57;54.81;100801.50;5057153;28;1107;-55
2023/06/20 08:41:38;;;;;;;;;;;;;;;16.53;54.69;100792.97;5056572;28;1199;-51
2023/06/20 08:44:04;;;;;;;;;;;;;;;16.51;54.82;100784.19;5055776;28;1906;-54
2023/06/20 08:46:31;;;;;;;;;;;;;;;16.48;54.92;100789.41;5056994;28;1222;-54
2023/06/20 08:48:57;;;;;;;;;;;;;;;16.49;54.80;100791.06;5056943;28;1044;-52
2023/06/20 08:51:23;;;;;;;;;;;;;;;16.39;54.96;100791.88;5056389;28;1158;-52
2023/06/20 08:53:49;;;;;;;;;;;;;;;16.43;54.79;100788.28;5026372;28;1184;-53
2023/06/20 08:56:15;;;;;;;;;;;;;;;16.45;54.91;100781.72;5056953;28;1044;-53
2023/06/20 08:58:41;;;;;;;;;;;;;;;17.50;55.61;100798.69;5056977;28;1150;-53
2023/06/20 09:01:07;;;;;;;;;;;;;;;17.24;56.20;100790.53;5056874;28;1108;-53
2023/06/20 09:03:33;;;;;;;;;;;;;;;17.01;56.20;100792.75;5056624;28;1976;-54
2023/06/20 09:05:58;;;;;;;;;;;;;;;16.87;55.92;100781.47;5056268;28;1021;-53
2023/06/20 09:08:24;;;;;;;;;;;;;;;16.84;55.75;100786.69;5043391;28;1130;-53
2023/06/20 09:11:03;;;;;;;;;;;;;;;16.76;55.66;100786.13;5038640;28;1036;-54
2023/06/20 09:13:29;;;;;;;;;;;;;;;16.70;55.44;100800.13;5056706;28;1128;-53
2023/06/20 09:16:03;;;;;;;;;;;;;;;16.61;55.48;100791.63;5054038;28;1043;-51
2023/06/20 09:18:29;;;;;;;;;;;;;;;16.60;55.33;100776.25;5041204;28;1143;-53
2023/06/20 09:20:57;;;;;;;;;;;;;;;16.63;54.98;100772.94;5045747;28;1044;-54
2023/06/20 09:23:29;;;;;;;;;;;;;;;16.58;54.95;100783.94;5056556;28;1982;-52
2023/06/20 09:26:15;;;;;;;;;;;;;;;16.56;55.04;100772.41;5056026;28;1246;-55
2023/06/20 09:28:41;;;;;;;;;;;;;;;16.49;54.94;100775.41;5053784;28;1828;-52
2023/06/20 09:31:06;;;;;;;;;;;;;;;16.50;55.18;100768.81;5045745;28;1055;-52
2023/06/20 09:33:32;;;;;;;;;;;;;;;16.58;54.63;100779.25;5053049;28;1075;-53
2023/06/20 09:36:10;;;;;;;;;;;;;;;16.51;55.04;100770.47;5038421;28;1489;-55
2023/06/20 09:38:36;;;;;;;;;;;;;;;16.46;54.86;100769.66;5038085;28;1435;-55
2023/06/20 09:41:01;;;;;;;;;;;;;;;16.47;54.91;100771.31;5056141;28;1305;-54
2023/06/20 09:43:26;;;;;;;;;;;;;;;17.39;55.67;100774.00;5037550;28;1909;-53
2023/06/20 09:45:52;;;;;;;;;;;;;;;17.40;55.73;100756.41;5037706;28;1420;-51
2023/06/20 09:48:18;;;;;;;;;;;;;;;17.09;56.09;100758.41;5055331;28;1258;-55
2023/06/20 09:50:43;;;;;;;;;;;;;;;16.97;55.87;100764.19;5037698;28;1211;-54
2023/06/20 09:53:28;;;;;;;;;;;;;;;16.88;55.54;100758.41;5055744;28;1226;-54
2023/06/20 09:55:55;;;;;;;;;;;;;;;16.83;55.64;100754.81;5055318;28;1222;-54
2023/06/20 09:58:20;;;;;;;;;;;;;;;16.79;55.38;100757.31;5056098;28;1266;-51
2023/06/20 10:00:46;;;;;;;;;;;;;;;16.72;55.47;100756.78;5055374;28;1357;-50
2023/06/20 10:03:11;;;;;;;;;;;;;;;16.65;55.49;100762.53;5056276;28;1242;-52
2023/06/20 10:05:37;;;;;;;;;;;;;;;16.67;55.14;100760.31;5042161;28;1914;-53
2023/06/20 10:08:02;;;;;;;;;;;;;;;16.63;55.16;100761.16;5055677;28;1067;-55
2023/06/20 10:10:28;;;;;;;;;;;;;;;16.60;55.01;100765.25;5055216;28;1143;-55
2023/06/20 10:12:53;;;;;;;;;;;;;;;16.62;55.15;100774.06;5055309;28;1183;-52
2023/06/20 10:15:19;;;;;;;;;;;;;;;16.53;55.00;100778.44;5037584;28;1145;-52
2023/06/20 10:17:48;;;;;;;;;;;;;;;16.60;55.00;100768.00;5055625;28;900;-55
2023/06/20 10:20:27;;;;;;;;;;;;;;;16.57;54.83;100765.81;5055472;28;1140;-52
2023/06/20 10:22:58;;;;;;;;;;;;;;;16.56;54.75;100772.41;5055603;28;1222;-56
2023/06/20 10:25:25;;;;;;;;;;;;;;;16.54;55.07;100777.34;5051246;28;1980;-53
2023/06/20 10:27:54;;;;;;;;;;;;;;;16.56;54.76;100786.13;5046423;28;1048;-52
2023/06/20 10:30:39;;;;;;;;;;;;;;;16.50;54.86;100787.22;5053528;28;1025;-55
2023/06/20 10:33:08;;;;;;;;;;;;;;;16.82;55.62;100775.97;5055082;28;1211;-52
2023/06/20 10:35:33;;;;;;;;;;;;;;;17.69;55.65;100775.00;5055215;28;1378;-49
2023/06/20 10:38:11;;;;;;;;;;;;;;;17.12;56.48;100771.56;5055421;28;1294;-53
2023/06/20 10:40:37;;;;;;;;;;;;;;;16.99;56.43;100767.47;5054544;28;1253;-55
2023/06/20 10:43:06;;;;;;;;;;;;;;;16.92;56.07;100759.50;5038216;28;1190;-53
2023/06/20 10:45:32;;;;;;;;;;;;;;;16.85;55.88;100769.13;5046407;28;1992;-51
2023/06/20 10:47:57;;;;;;;;;;;;;;;16.77;55.94;100765.81;5055353;28;1036;-50
2023/06/20 10:50:23;;;;;;;;;;;;;;;16.74;55.55;100763.59;5055465;28;1174;-49
2023/06/20 10:52:49;;;;;;;;;;;;;;;16.73;55.53;100759.22;5054518;28;1068;-55
2023/06/20 10:55:27;;;;;;;;;;;;;;;16.72;55.22;100752.09;5040484;28;1127;-53
2023/06/20 10:57:52;;;;;;;;;;;;;;;16.69;55.21;100760.88;5035614;28;1148;-54
2023/06/20 11:00:19;;;;;;;;;;;;;;;16.60;55.44;100752.34;5039368;28;1179;-51
2023/06/20 11:02:45;;;;;;;;;;;;;;;16.66;55.23;100758.69;5054644;28;1207;-51
2023/06/20 11:05:10;;;;;;;;;;;;;;;16.63;55.04;100761.97;5054029;28;1907;-51
2023/06/20 11:07:54;;;;;;;;;;;;;;;16.58;55.26;100753.75;5039719;28;1242;-53
2023/06/20 11:10:20;;;;;;;;;;;;;;;16.52;55.05;100761.16;5058580;28;1182;-52
2023/06/20 11:12:46;;;;;;;;;;;;;;;16.48;55.10;100764.69;5058696;28;1179;-53
2023/06/20 11:15:38;;;;;;;;;;;;;;;16.50;55.15;100765.25;5058418;28;1238;-51
2023/06/20 11:18:06;;;;;;;;;;;;;;;17.16;55.99;100769.09;5055671;28;1685;-54
2023/06/20 11:20:36;;;;;;;;;;;;;;;17.42;56.04;100765.19;5058458;28;1296;-52
2023/06/20 11:23:05;;;;;;;;;;;;;;;17.08;56.26;100763.09;5058083;28;1250;-55
2023/06/20 11:25:31;;;;;;;;;;;;;;;16.91;56.28;100762.53;5058618;28;1905;-48
2023/06/20 11:28:10;;;;;;;;;;;;;;;16.88;55.93;100754.81;5058638;28;1080;-49
2023/06/20 11:30:37;;;;;;;;;;;;;;;16.81;55.71;100746.84;5046279;28;980;-49
2023/06/20 11:33:02;;;;;;;;;;;;;;;16.74;55.83;100741.63;5044217;28;1274;-51
2023/06/20 11:35:46;;;;;;;;;;;;;;;16.74;55.48;100740.81;5058756;28;1219;-50
2023/06/20 11:38:13;;;;;;;;;;;;;;;16.62;55.48;100732.88;5058559;28;1043;-58
2023/06/20 11:40:38;;;;;;;;;;;;;;;16.65;55.20;100742.47;5056262;28;1036;-52
2023/06/20 11:43:04;;;;;;;;;;;;;;;16.63;55.19;100759.22;5048621;28;1184;-54
2023/06/20 11:45:30;;;;;;;;;;;;;;;16.60;55.07;100757.84;5057472;28;1984;-56
2023/06/20 11:48:11;;;;;;;;;;;;;;;16.62;55.04;100768.56;5057615;28;1179;-56
2023/06/20 11:50:37;;;;;;;;;;;;;;;16.57;54.96;100769.38;5057971;28;1234;-54
2023/06/20 11:53:03;;;;;;;;;;;;;;;16.57;54.95;100765.81;5057249;28;1411;-56
2023/06/20 11:56:04;;;;;;;;;;;;;;;16.56;54.96;100780.63;5044266;28;1112;-53
2023/06/20 11:58:36;;;;;;;;;;;;;;;16.49;54.94;100782.81;5015236;28;1208;-55
2023/06/20 12:01:04;;;;;;;;;;;;;;;16.45;54.90;100789.94;5045957;28;1001;-55
2023/06/20 12:03:31;;;;;;;;;;;;;;;16.43;54.84;100782.00;5057197;28;1967;-54
2023/06/20 12:05:56;;;;;;;;;;;;;;;16.41;54.94;100785.00;5045266;28;849;-55
2023/06/20 12:08:24;;;;;;;;;;;;;;;17.02;56.00;100772.41;5039223;28;1075;-50
2023/06/20 12:11:11;;;;;;;;;;;;;;;17.58;55.93;100770.63;5057961;28;1063;-52
2023/06/20 12:13:37;;;;;;;;;;;;;;;17.04;56.65;100783.97;5057852;28;1060;-53
2023/06/20 12:16:02;;;;;;;;;;;;;;;16.94;56.10;100789.44;5039885;28;1414;-53
2023/06/20 12:18:28;;;;;;;;;;;;;;;16.82;56.01;100795.19;5054884;28;876;-53
2023/06/20 12:20:53;;;;;;;;;;;;;;;16.77;55.59;100809.75;5037907;28;1152;-53
2023/06/20 12:23:19;;;;;;;;;;;;;;;16.68;55.54;100811.41;5053071;28;1064;-53
2023/06/20 12:25:44;;;;;;;;;;;;;;;16.58;55.59;100836.09;5057511;28;1992;-53
2023/06/20 12:28:10;;;;;;;;;;;;;;;16.58;55.37;100816.88;5057458;28;1215;-52
2023/06/20 12:30:35;;;;;;;;;;;;;;;16.56;55.38;100816.31;5056628;28;1009;-50
2023/06/20 12:33:02;;;;;;;;;;;;;;;16.52;55.27;100812.47;5056787;28;1285;-51
2023/06/20 12:35:27;;;;;;;;;;;;;;;16.53;55.25;100805.88;5054395;28;1176;-48
2023/06/20 12:37:53;;;;;;;;;;;;;;;16.70;56.21;100814.69;5056753;28;1187;-51
2023/06/20 12:40:18;;;;;;;;;;;;;;;17.69;57.10;100813.50;5056785;28;1305;-50
2023/06/20 12:42:44;;;;;;;;;;;;;;;17.13;57.10;100802.63;5056230;28;1297;-52
2023/06/20 12:45:10;;;;;;;;;;;;;;;17.02;56.48;100816.38;5056373;28;1981;-52
2023/06/20 12:47:39;;;;;;;;;;;;;;;16.84;56.18;100794.91;5056672;28;1289;-51